createdAt,value
2018-02-24T00:01:54.441Z,30.70
2018-02-24T00:04:23.020Z,29.30
2018-02-24T00:06:51.573Z,29.77
2018-02-24T00:09:20.401Z,27.30
2018-02-24T00:11:48.952Z,26.27
2018-02-24T00:14:17.504Z,25.93
2018-02-24T00:16:46.880Z,30.13
2018-02-24T00:19:15.468Z,25.13
2018-02-24T00:21:44.033Z,24.00
2018-02-24T00:24:12.921Z,28.20
2018-02-24T00:26:42.249Z,26.37
2018-02-24T00:29:10.813Z,23.97
2018-02-24T00:31:39.432Z,28.40
2018-02-24T00:34:08.748Z,28.23
2018-02-24T00:36:37.328Z,30.40
2018-02-24T00:39:06.694Z,30.30
2018-02-24T00:41:35.240Z,31.17
2018-02-24T00:44:03.814Z,23.60
2018-02-24T00:46:32.424Z,25.33
2018-02-24T00:49:01.010Z,24.53
2018-02-24T00:51:29.591Z,22.73
2018-02-24T00:53:58.224Z,24.87
2018-02-24T00:56:27.585Z,23.80
2018-02-24T00:58:57.120Z,23.70
2018-02-24T01:01:26.900Z,27.33
2018-02-24T01:03:55.444Z,25.70
2018-02-24T01:06:23.996Z,25.90
2018-02-24T01:08:53.404Z,25.87
2018-02-24T01:11:22.731Z,25.73
2018-02-24T01:13:51.286Z,24.87
2018-02-24T01:16:20.664Z,23.30
2018-02-24T01:18:50.177Z,26.50
2018-02-24T01:21:18.739Z,30.43
2018-02-24T01:26:20.988Z,39.13
2018-02-24T01:28:49.549Z,35.37
2018-02-24T01:31:19.005Z,29.33
2018-02-24T01:33:47.560Z,29.47
2018-02-24T01:36:16.113Z,29.90
2018-02-24T01:38:45.568Z,35.23
2018-02-24T01:41:14.117Z,29.60
2018-02-24T01:43:42.674Z,28.33
2018-02-24T01:46:11.285Z,25.93
2018-02-24T01:48:40.609Z,32.33
2018-02-24T01:51:09.169Z,28.80
2018-02-24T01:53:37.794Z,29.50
2018-02-24T01:56:06.381Z,27.90
2018-02-24T01:58:34.933Z,27.87
2018-02-24T02:01:03.536Z,26.87
2018-02-24T02:03:32.088Z,28.60
2018-02-24T02:06:01.406Z,28.47
2018-02-24T02:08:30.118Z,28.57
2018-02-24T02:10:58.673Z,28.40
2018-02-24T02:13:28.153Z,27.90
2018-02-24T02:15:57.520Z,28.10
2018-02-24T02:18:26.072Z,26.17
2018-02-24T02:20:54.629Z,25.53
2018-02-24T02:23:23.520Z,26.80
2018-02-24T02:25:52.072Z,25.93
2018-02-24T02:28:20.635Z,25.40
2018-02-24T02:30:49.236Z,25.57
2018-02-24T02:33:17.791Z,26.73
2018-02-24T02:35:46.345Z,26.63
2018-02-24T02:38:15.168Z,23.80
2018-02-24T02:40:43.717Z,25.57
2018-02-24T02:43:12.274Z,25.40
2018-02-24T02:45:41.648Z,25.10
2018-02-24T02:48:10.226Z,45.20
2018-02-24T02:50:38.773Z,33.00
2018-02-24T02:53:07.398Z,29.33
2018-02-24T02:55:35.949Z,30.00
2018-02-24T02:58:04.512Z,27.83
2018-02-24T03:00:33.247Z,31.23
2018-02-24T03:03:01.798Z,29.17
2018-02-24T03:05:30.353Z,29.93
2018-02-24T03:07:59.718Z,33.13
2018-02-24T03:10:28.284Z,30.30
2018-02-24T03:12:56.832Z,27.03
2018-02-24T03:15:26.192Z,32.20
2018-02-24T03:17:54.745Z,31.47
2018-02-24T03:20:23.298Z,28.03
2018-02-24T03:22:51.898Z,29.50
2018-02-24T03:25:20.496Z,27.63
2018-02-24T03:27:49.053Z,28.63
2018-02-24T03:30:17.939Z,30.60
2018-02-24T03:32:47.259Z,30.20
2018-02-24T03:35:15.822Z,29.03
2018-02-24T03:37:44.753Z,28.00
2018-02-24T03:40:13.305Z,33.33
2018-02-24T03:42:41.864Z,28.53
2018-02-24T03:45:11.394Z,31.57
2018-02-24T03:47:39.972Z,27.63
2018-02-24T03:50:08.545Z,32.10
2018-02-24T03:52:37.204Z,24.67
2018-02-24T03:55:05.753Z,31.33
2018-02-24T03:57:34.297Z,29.60
2018-02-24T04:00:02.904Z,28.57
2018-02-24T04:02:31.456Z,31.63
2018-02-24T04:05:00.797Z,29.87
2018-02-24T04:07:29.416Z,34.60
2018-02-24T04:09:57.977Z,35.60
2018-02-24T04:12:26.531Z,31.63
2018-02-24T04:14:55.405Z,34.97
2018-02-24T04:17:24.713Z,37.87
2018-02-24T04:19:53.259Z,39.13
2018-02-24T04:22:21.864Z,40.53
2018-02-24T04:24:51.184Z,34.27
2018-02-24T04:27:19.736Z,35.47
2018-02-24T04:29:48.360Z,39.20
2018-02-24T04:32:16.901Z,44.23
2018-02-24T04:34:45.463Z,42.17
2018-02-24T04:37:14.236Z,34.43
2018-02-24T04:39:43.560Z,38.03
2018-02-24T04:42:12.108Z,42.77
2018-02-24T04:44:40.808Z,38.27
2018-02-24T04:47:09.357Z,34.77
2018-02-24T04:49:37.905Z,35.37
2018-02-24T04:52:07.585Z,37.43
2018-02-24T04:54:36.148Z,36.57
2018-02-24T04:57:04.721Z,35.73
2018-02-24T04:59:33.340Z,38.23
2018-02-24T05:02:02.654Z,39.07
2018-02-24T05:04:31.213Z,35.10
2018-02-24T05:06:59.837Z,37.00
2018-02-24T05:09:29.175Z,51.73
2018-02-24T05:11:58.048Z,39.13
2018-02-24T05:14:27.802Z,38.90
2018-02-24T05:16:56.349Z,42.67
2018-02-24T05:19:25.664Z,52.87
2018-02-24T05:21:54.271Z,47.60
2018-02-24T05:24:22.821Z,56.37
2018-02-24T05:26:51.377Z,68.83
2018-02-24T05:29:20.751Z,70.27
2018-02-24T05:31:49.299Z,41.03
2018-02-24T05:34:17.845Z,55.83
2018-02-24T05:36:47.409Z,56.97
2018-02-24T05:39:15.960Z,71.37
2018-02-24T05:41:44.508Z,53.73
2018-02-24T05:44:13.367Z,60.87
2018-02-24T05:46:41.957Z,54.53
2018-02-24T05:49:10.498Z,52.50
2018-02-24T05:51:39.111Z,70.10
2018-02-24T05:54:07.672Z,94.73
2018-02-24T05:56:36.220Z,73.20
2018-02-24T05:59:04.824Z,68.80
2018-02-24T06:01:33.400Z,81.93
2018-02-24T06:04:01.952Z,114.07
2018-02-24T06:06:30.596Z,56.03
2018-02-24T06:08:59.955Z,50.97
2018-02-24T06:11:28.513Z,55.10
2018-02-24T06:13:57.878Z,51.07
2018-02-24T06:16:26.432Z,168.67
2018-02-24T06:18:54.986Z,103.17
2018-02-24T06:21:24.348Z,84.17
2018-02-24T06:23:52.899Z,213.57
2018-02-24T06:26:21.480Z,96.70
2018-02-24T06:28:50.294Z,119.60
2018-02-24T06:31:18.845Z,103.43
2018-02-24T06:33:47.396Z,95.43
2018-02-24T06:36:16.893Z,91.23
2018-02-24T06:38:46.244Z,90.10
2018-02-24T06:41:14.820Z,54.20
2018-02-24T06:43:43.513Z,85.77
2018-02-24T06:46:12.117Z,91.53
2018-02-24T06:48:41.434Z,88.97
2018-02-24T06:51:10.328Z,162.30
2018-02-24T06:53:38.890Z,169.67
2018-02-24T06:56:07.452Z,118.93
2018-02-24T06:58:38.116Z,68.93
2018-02-24T07:01:06.915Z,66.43
2018-02-24T07:03:35.484Z,58.53
2018-02-24T07:06:05.329Z,58.23
2018-02-24T07:08:34.656Z,57.43
2018-02-24T07:11:03.213Z,62.43
2018-02-24T07:13:31.809Z,62.83
2018-02-24T07:16:01.568Z,69.20
2018-02-24T07:18:30.121Z,57.63
2018-02-24T07:20:58.734Z,47.87
2018-02-24T07:23:27.284Z,57.07
2018-02-24T07:25:55.829Z,66.50
2018-02-24T07:28:24.432Z,85.60
2018-02-24T07:30:53.744Z,87.97
2018-02-24T07:33:22.318Z,53.67
2018-02-24T07:35:51.877Z,62.13
2018-02-24T07:38:20.437Z,60.87
2018-02-24T07:40:48.988Z,57.37
2018-02-24T07:43:18.854Z,58.07
2018-02-24T07:45:47.404Z,50.97
2018-02-24T07:48:15.956Z,57.93
2018-02-24T07:50:45.520Z,58.17
2018-02-24T07:53:14.065Z,51.37
2018-02-24T07:55:42.617Z,48.17
2018-02-24T07:58:11.581Z,55.73
2018-02-24T08:00:40.893Z,48.70
2018-02-24T08:03:09.435Z,49.70
2018-02-24T08:05:38.349Z,48.50
2018-02-24T08:08:06.899Z,61.17
2018-02-24T08:10:36.428Z,60.00
2018-02-24T08:13:05.232Z,65.63
2018-02-24T08:15:48.667Z,57.13
2018-02-24T08:18:17.300Z,52.27
2018-02-24T08:20:46.124Z,52.43
2018-02-24T08:23:14.672Z,73.03
2018-02-24T08:25:43.276Z,50.10
2018-02-24T08:28:11.812Z,48.30
2018-02-24T08:30:40.370Z,61.60
2018-02-24T08:33:09.316Z,50.60
2018-02-24T08:35:38.634Z,42.17
2018-02-24T08:38:07.179Z,49.27
2018-02-24T08:40:36.024Z,41.97
2018-02-24T08:43:04.613Z,43.50
2018-02-24T08:45:33.152Z,37.03
2018-02-24T08:48:01.758Z,44.17
2018-02-24T08:50:30.316Z,44.33
2018-02-24T08:52:59.630Z,42.07
2018-02-24T08:55:28.324Z,43.57
2018-02-24T08:57:56.870Z,51.20
2018-02-24T09:00:26.181Z,46.40
2018-02-24T09:02:55.549Z,46.37
2018-02-24T09:05:24.097Z,38.90
2018-02-24T09:07:52.648Z,37.03
2018-02-24T09:10:22.009Z,58.10
2018-02-24T09:12:50.552Z,48.77
2018-02-24T09:15:19.104Z,58.30
2018-02-24T09:17:48.470Z,50.80
2018-02-24T09:20:17.021Z,51.03
2018-02-24T09:22:45.577Z,41.73
2018-02-24T09:25:15.134Z,37.03
2018-02-24T09:27:44.493Z,38.63
2018-02-24T09:30:13.049Z,52.10
2018-02-24T09:32:41.905Z,57.63
2018-02-24T09:35:10.520Z,38.60
2018-02-24T09:37:39.840Z,83.87
2018-02-24T09:40:09.312Z,36.00
2018-02-24T09:42:37.859Z,35.73
2018-02-24T09:45:06.420Z,32.50
2018-02-24T09:47:35.784Z,36.80
2018-02-24T09:50:04.353Z,33.27
2018-02-24T09:52:32.906Z,29.10
2018-02-24T09:55:01.526Z,27.00
2018-02-24T09:57:30.073Z,26.97
2018-02-24T09:59:58.637Z,30.60
2018-02-24T10:02:27.232Z,24.83
2018-02-24T10:04:55.780Z,26.73
2018-02-24T10:07:24.337Z,24.43
2018-02-24T10:09:53.317Z,24.37
2018-02-24T10:12:21.866Z,23.10
2018-02-24T10:14:50.421Z,23.07
2018-02-24T10:17:19.796Z,32.13
2018-02-24T10:19:48.339Z,29.03
2018-02-24T10:22:16.897Z,111.53
2018-02-24T10:24:46.265Z,34.77
2018-02-24T10:27:14.817Z,29.40
2018-02-24T10:29:43.364Z,31.97
2018-02-24T10:32:12.878Z,26.37
2018-02-24T10:34:42.197Z,29.50
2018-02-24T10:37:10.755Z,27.57
2018-02-24T10:39:40.316Z,27.10
2018-02-24T10:42:08.897Z,25.50
2018-02-24T10:44:37.450Z,27.60
2018-02-24T10:47:06.141Z,24.93
2018-02-24T10:49:34.701Z,28.57
2018-02-24T10:52:04.014Z,33.07
2018-02-24T10:54:32.625Z,25.23
2018-02-24T10:57:01.189Z,23.33
2018-02-24T10:59:29.738Z,23.17
2018-02-24T11:01:58.362Z,23.40
2018-02-24T11:04:26.921Z,23.60
2018-02-24T11:06:55.473Z,24.47
2018-02-24T11:09:24.844Z,20.83
2018-02-24T11:11:53.401Z,28.23
2018-02-24T11:14:21.961Z,25.27
2018-02-24T11:16:50.556Z,22.63
2018-02-24T11:19:19.104Z,42.67
2018-02-24T11:21:48.416Z,20.07
2018-02-24T11:24:17.017Z,20.83
2018-02-24T11:26:45.577Z,20.07
2018-02-24T11:29:14.125Z,18.50
2018-02-24T11:31:42.737Z,16.90
2018-02-24T11:34:12.053Z,22.00
2018-02-24T11:36:40.606Z,19.20
2018-02-24T11:39:10.721Z,17.00
2018-02-24T11:41:39.274Z,21.77
2018-02-24T11:44:07.829Z,18.47
2018-02-24T11:46:36.467Z,22.63
2018-02-24T11:49:05.800Z,20.30
2018-02-24T11:51:34.355Z,17.33
2018-02-24T11:54:03.208Z,18.90
2018-02-24T11:56:32.477Z,19.57
2018-02-24T11:59:01.029Z,17.83
2018-02-24T12:01:29.633Z,17.70
2018-02-24T12:03:58.185Z,17.13
2018-02-24T12:06:26.737Z,18.33
2018-02-24T12:08:55.433Z,14.70
2018-02-24T12:11:23.985Z,19.57
2018-02-24T12:13:52.546Z,18.50
2018-02-24T12:16:21.909Z,16.83
2018-02-24T12:18:50.461Z,14.53
2018-02-24T12:21:19.008Z,16.80
2018-02-24T12:23:48.570Z,20.40
2018-02-24T12:26:17.177Z,17.70
2018-02-24T12:28:45.708Z,17.40
2018-02-24T12:31:14.322Z,28.63
2018-02-24T12:33:42.870Z,20.20
2018-02-24T12:36:11.424Z,15.80
2018-02-24T12:38:40.803Z,24.37
2018-02-24T12:41:09.370Z,22.40
2018-02-24T12:43:37.921Z,24.20
2018-02-24T12:46:06.740Z,34.83
2018-02-24T12:48:36.052Z,22.07
2018-02-24T12:51:04.600Z,21.57
2018-02-24T12:53:33.365Z,18.47
2018-02-24T12:56:02.779Z,20.90
2018-02-24T12:58:32.080Z,31.90
2018-02-24T13:01:00.713Z,38.60
2018-02-24T13:03:29.267Z,29.10
2018-02-24T13:05:57.872Z,17.57
2018-02-24T13:08:26.654Z,17.13
2018-02-24T13:10:55.200Z,19.37
2018-02-24T13:13:23.752Z,22.43
2018-02-24T13:15:52.356Z,27.50
2018-02-24T13:18:20.933Z,28.03
2018-02-24T13:20:50.252Z,24.80
2018-02-24T13:23:18.968Z,19.50
2018-02-24T13:25:47.525Z,23.90
2018-02-24T13:28:16.075Z,24.20
2018-02-24T13:30:45.600Z,20.13
2018-02-24T13:33:14.952Z,16.03
2018-02-24T13:35:43.539Z,20.03
2018-02-24T13:38:12.161Z,15.23
2018-02-24T13:40:41.505Z,22.50
2018-02-24T13:43:10.088Z,19.50
2018-02-24T13:45:38.785Z,23.13
2018-02-24T13:48:07.344Z,21.03
2018-02-24T13:50:35.896Z,23.63
2018-02-24T13:53:05.461Z,18.90
2018-02-24T13:55:34.008Z,20.73
2018-02-24T13:58:02.557Z,17.17
2018-02-24T14:00:31.920Z,24.13
2018-02-24T14:03:00.481Z,36.37
2018-02-24T14:05:29.057Z,29.97
2018-02-24T14:07:57.881Z,20.03
2018-02-24T14:10:26.515Z,108.97
2018-02-24T14:12:55.060Z,65.63
2018-02-24T14:15:23.657Z,44.43
2018-02-24T14:17:52.217Z,26.53
2018-02-24T14:20:20.765Z,18.10
2018-02-24T14:22:49.366Z,23.03
2018-02-24T14:25:17.952Z,26.13
2018-02-24T14:27:46.508Z,23.97
2018-02-24T14:30:15.101Z,20.33
2018-02-24T14:32:43.697Z,20.70
2018-02-24T14:35:12.250Z,23.43
2018-02-24T14:37:41.618Z,28.77
2018-02-24T14:40:10.180Z,21.07
2018-02-24T14:42:38.724Z,30.77
2018-02-24T14:45:07.324Z,31.63
2018-02-24T14:47:35.880Z,25.03
2018-02-24T14:50:05.194Z,22.07
2018-02-24T14:52:33.788Z,26.67
2018-02-24T14:55:02.341Z,23.60
2018-02-24T14:57:31.653Z,24.07
2018-02-24T15:00:01.057Z,23.33
2018-02-24T15:02:29.606Z,25.50
2018-02-24T15:04:58.223Z,22.00
2018-02-24T15:07:26.928Z,27.83
2018-02-24T15:09:55.474Z,25.20
2018-02-24T15:12:24.792Z,30.50
2018-02-24T15:14:53.416Z,22.63
2018-02-24T15:17:22.000Z,23.40
2018-02-24T15:19:50.584Z,29.77
2018-02-24T15:22:19.374Z,30.70
2018-02-24T15:24:47.955Z,24.63
2018-02-24T15:27:16.540Z,27.87
2018-02-24T15:29:45.529Z,29.83
2018-02-24T15:32:14.073Z,31.87
2018-02-24T15:34:42.643Z,22.97
2018-02-24T15:37:12.175Z,26.63
2018-02-24T15:39:40.729Z,24.97
2018-02-24T15:42:10.042Z,27.07
2018-02-24T15:44:38.973Z,30.83
2018-02-24T15:47:07.521Z,28.30
2018-02-24T15:49:36.865Z,28.87
2018-02-24T15:52:05.585Z,29.53
2018-02-24T15:54:34.900Z,28.10
2018-02-24T15:57:04.240Z,26.77
2018-02-24T15:59:32.834Z,27.27
2018-02-24T16:02:04.560Z,29.07
2018-02-24T16:04:33.117Z,27.87
2018-02-24T16:07:02.764Z,25.60
2018-02-24T16:09:31.309Z,30.87
2018-02-24T16:11:59.897Z,27.77
2018-02-24T16:14:29.264Z,28.90
2018-02-24T16:16:57.813Z,29.70
2018-02-24T16:19:26.366Z,26.37
2018-02-24T16:21:56.532Z,30.50
2018-02-24T16:24:25.860Z,28.33
2018-02-24T16:26:54.421Z,29.60
2018-02-24T16:29:23.113Z,27.30
2018-02-24T16:31:51.662Z,27.63
2018-02-24T16:34:20.198Z,28.77
2018-02-24T16:36:48.957Z,35.87
2018-02-24T16:39:17.500Z,47.10
2018-02-24T16:41:46.050Z,38.40
2018-02-24T16:44:14.642Z,42.37
2018-02-24T16:46:43.212Z,41.20
2018-02-24T16:49:12.523Z,43.27
2018-02-24T16:51:41.891Z,40.30
2018-02-24T16:54:10.438Z,42.20
2018-02-24T16:56:38.995Z,42.73
2018-02-24T16:59:08.455Z,48.07
2018-02-24T17:01:37.053Z,60.27
2018-02-24T17:04:05.601Z,44.90
2018-02-24T17:06:34.208Z,43.20
2018-02-24T17:09:02.755Z,46.20
2018-02-24T17:11:31.297Z,41.80
2018-02-24T17:14:00.069Z,48.63
2018-02-24T17:16:28.654Z,59.73
2018-02-24T17:18:57.237Z,129.50
2018-02-24T17:21:26.005Z,163.00
2018-02-24T17:23:54.561Z,203.27
2018-02-24T17:26:23.876Z,126.57
2018-02-24T17:28:52.793Z,70.43
2018-02-24T17:31:21.341Z,95.43
2018-02-24T17:33:49.890Z,197.17
2018-02-24T17:36:18.510Z,58.67
2018-02-24T17:38:47.086Z,56.63
2018-02-24T17:41:15.645Z,113.33
2018-02-24T17:43:44.502Z,53.23
2018-02-24T17:46:13.057Z,69.10
2018-02-24T17:48:43.158Z,51.73
2018-02-24T17:51:11.761Z,83.37
2018-02-24T17:53:40.316Z,83.47
2018-02-24T17:56:09.667Z,57.53
2018-02-24T17:58:38.352Z,50.23
2018-02-24T18:01:06.924Z,45.70
2018-02-24T18:03:35.502Z,48.70
2018-02-24T18:06:04.513Z,50.07
2018-02-24T18:08:33.837Z,52.20
2018-02-24T18:11:02.391Z,49.57
2018-02-24T18:13:31.138Z,51.50
2018-02-24T18:16:00.150Z,44.50
2018-02-24T18:18:28.718Z,44.23
2018-02-24T18:20:57.321Z,44.33
2018-02-24T18:23:25.873Z,46.07
2018-02-24T18:25:54.423Z,43.53
2018-02-24T18:28:23.785Z,38.43
2018-02-24T18:30:52.338Z,41.40
2018-02-24T18:33:20.889Z,39.67
2018-02-24T18:35:50.251Z,41.93
2018-02-24T18:38:18.797Z,41.23
2018-02-24T18:40:47.352Z,49.77
2018-02-24T18:43:16.761Z,39.80
2018-02-24T18:45:46.108Z,42.50
2018-02-24T18:48:14.679Z,44.90
2018-02-24T18:50:43.793Z,46.33
2018-02-24T18:53:12.380Z,38.33
2018-02-24T18:55:40.933Z,78.53
2018-02-24T18:58:09.741Z,46.70
2018-02-24T19:00:38.297Z,41.27
2018-02-24T19:03:06.870Z,49.23
2018-02-24T19:05:35.758Z,44.33
2018-02-24T19:08:04.353Z,48.73
2018-02-24T19:10:32.942Z,48.37
2018-02-24T19:13:02.454Z,54.17
2018-02-24T19:15:31.005Z,51.03
2018-02-24T19:17:59.559Z,57.10
2018-02-24T19:20:29.226Z,48.03
2018-02-24T19:22:57.837Z,49.90
2018-02-24T19:25:26.409Z,44.97
2018-02-24T19:27:55.002Z,42.83
2018-02-24T19:30:23.579Z,47.50
2018-02-24T19:32:52.889Z,50.30
2018-02-24T19:35:21.496Z,51.67
2018-02-24T19:37:50.036Z,52.57
2018-02-24T19:40:18.584Z,49.90
2018-02-24T19:42:48.055Z,43.53
2018-02-24T19:45:16.605Z,50.77
2018-02-24T19:47:45.156Z,48.20
2018-02-24T19:50:14.870Z,46.73
2018-02-24T19:52:44.193Z,44.93
2018-02-24T19:55:12.747Z,50.03
2018-02-24T19:57:41.444Z,45.97
2018-02-24T20:00:10.757Z,48.50
2018-02-24T20:02:40.074Z,40.23
2018-02-24T20:05:08.765Z,46.23
2018-02-24T20:07:38.081Z,45.00
2018-02-24T20:10:07.393Z,36.97
2018-02-24T20:12:35.989Z,42.07
2018-02-24T20:15:04.553Z,42.83
2018-02-24T20:17:33.102Z,43.97
2018-02-24T20:20:01.698Z,43.47
2018-02-24T20:22:30.244Z,44.53
2018-02-24T20:24:58.801Z,39.93
2018-02-24T20:27:27.406Z,39.33
2018-02-24T20:29:55.962Z,40.97
2018-02-24T20:32:24.505Z,40.63
2018-02-24T20:34:53.244Z,42.70
2018-02-24T20:37:22.572Z,60.37
2018-02-24T20:39:51.128Z,43.37
2018-02-24T20:42:20.894Z,46.73
2018-02-24T20:44:49.441Z,44.20
2018-02-24T20:47:17.989Z,78.53
2018-02-24T20:49:46.595Z,89.90
2018-02-24T20:52:15.934Z,47.13
2018-02-24T20:54:44.500Z,62.57
2018-02-24T20:57:13.195Z,50.00
2018-02-24T20:59:41.753Z,48.43
2018-02-24T21:02:11.060Z,46.13
2018-02-24T21:04:40.565Z,55.00
2018-02-24T21:07:09.129Z,49.10
2018-02-24T21:09:38.448Z,42.73
2018-02-24T21:12:07.050Z,48.33
2018-02-24T21:14:35.597Z,35.03
2018-02-24T21:17:04.908Z,32.20
2018-02-24T21:19:34.266Z,33.17
2018-02-24T21:22:02.813Z,28.07
2018-02-24T21:24:31.365Z,32.40
2018-02-24T21:27:00.734Z,33.13
2018-02-24T21:29:29.281Z,35.60
2018-02-24T21:31:57.837Z,30.00
2018-02-24T21:34:28.137Z,30.13
2018-02-24T21:36:56.697Z,27.80
2018-02-24T21:39:25.245Z,30.57
2018-02-24T21:41:53.841Z,30.73
2018-02-24T21:44:22.397Z,31.80
2018-02-24T21:46:51.705Z,29.63
2018-02-24T21:49:21.072Z,28.53
2018-02-24T21:51:49.625Z,28.07
2018-02-24T21:54:18.181Z,26.40
2018-02-24T21:56:46.959Z,32.90
2018-02-24T21:59:15.517Z,29.37
2018-02-24T22:01:44.843Z,29.03
2018-02-24T22:04:14.243Z,33.10
2018-02-24T22:06:42.797Z,35.33
2018-02-24T22:09:11.456Z,33.33
2018-02-24T22:11:40.249Z,36.03
2018-02-24T22:14:08.796Z,38.20
2018-02-24T22:16:37.340Z,38.50
2018-02-24T22:19:05.932Z,39.40
2018-02-24T22:21:35.248Z,41.70
2018-02-24T22:24:04.566Z,39.97
2018-02-24T22:26:33.378Z,39.37
2018-02-24T22:29:01.925Z,39.87
2018-02-24T22:31:31.234Z,38.83
2018-02-24T22:33:59.841Z,41.97
2018-02-24T22:36:28.393Z,43.97
2018-02-24T22:38:56.941Z,41.70
2018-02-24T22:41:25.696Z,40.50
2018-02-24T22:43:54.240Z,38.80
2018-02-24T22:46:23.557Z,40.67
2018-02-24T22:48:57.513Z,44.27
2018-02-24T22:51:26.062Z,44.83
2018-02-24T22:53:54.617Z,38.47
2018-02-24T22:56:23.985Z,38.37
2018-02-24T22:58:52.545Z,37.53
2018-02-24T23:01:21.098Z,43.53
2018-02-24T23:03:49.710Z,34.40
2018-02-24T23:06:18.256Z,39.73
2018-02-24T23:08:47.573Z,44.37
2018-02-24T23:11:16.487Z,43.20
2018-02-24T23:13:45.074Z,37.57
2018-02-24T23:16:13.621Z,42.40
2018-02-24T23:18:42.305Z,37.53
2018-02-24T23:21:10.857Z,35.63
2018-02-24T23:23:40.173Z,39.67
2018-02-24T23:26:09.720Z,35.67
2018-02-24T23:28:38.270Z,42.20
2018-02-24T23:31:07.620Z,48.47
2018-02-24T23:33:37.221Z,38.40
2018-02-24T23:36:05.773Z,35.57
2018-02-24T23:38:34.324Z,36.57
2018-02-24T23:41:03.697Z,45.07
2018-02-24T23:43:32.244Z,37.93
2018-02-24T23:46:00.784Z,44.50
2018-02-24T23:48:30.316Z,45.33
2018-02-24T23:50:58.863Z,21.33
2018-02-24T23:53:27.430Z,44.57
2018-02-24T23:55:56.193Z,41.80
2018-02-24T23:58:24.731Z,59.87
